Oshkosh, NE (69154)

2:48 AM MST on December 08, 2016 (GMT -0700)
West end of Town (K0RRL) | | Change Station
Active Advisory: Wind Chill Advisory

Elev 3394 ft 41.41 °N, 102.36 °W | Updated 17 seconds ago

Clear
Clear
-4.9 °F
Feels Like -15 °F
N
4.0
Wind Variable Wind from NNW
Gusts 4.9 mph

Today
High -- | Low -- °F
--% Chance of Precip.
Yesterday
High -- | Low -- °F
Precip. -- in
Pressure 30.54 in
Visibility 10.0 miles
Clouds Clear
Windchill -15 °F
Dew Point -15 °F
Humidity 60%
Rainfall 0.00 in
Snow Depth Not available.
7:03 AM 4:19 PM
First Quarter, 61% visible
METAR KOGA 080935Z AUTO 32007KT 10SM CLR M16/M20 A3054 RMK AO2 T11601200
Pressure 30.54 in
Visibility 10.0 miles
Clouds Clear
Windchill -15 °F
Dew Point -15 °F
Humidity 60%
Rainfall 0.00 in
Snow Depth Not available.
7:03 AM 4:19 PM
First Quarter, 61% visible
METAR KOGA 080935Z AUTO 32007KT 10SM CLR M16/M20 A3054 RMK AO2 T11601200

10-Day Weather Forecast

Almanac

Astronomy

Dec. 08, 2016 Rise Set
Actual Time
Civil Twilight
Nautical Twilight
Astronomical Twilight
Moon
Length of Visible Light
Length of Day
Tomorrow will be .
, % of the Moon is Illuminated

Today's Extremes

State Highs State Lows

Community

WunderPhotos

Upload Photos

1,956,259 photos uploaded!

WunderBlog® & News

Nearby

Air Quality

  Air Quality AQ Index Pollutant
Not available.

Snow Depth

Station Depth Elevation

Earthquake Activity

City Distance Mag. Time & Date
Minimum magnitude displayed is 2.5.

Coastal Water Temperatures

Place Temperature

Stations

Nearby Weather Stations

Station Location Temp. Windchill Dew Point Humidity Wind Precip. Elev Updated Type
                   

Watches & Warnings

Wind Chill Advisory
Issued: 2:47 AM MST Dec. 8, 2016 – National Weather Service

... Wind Chill Advisory remains in effect until 10 am CST /9 am
MST/ this morning...

A Wind Chill Advisory remains in effect until 10 am CST /9 am
MST/ this morning.

* Wind chill values of 15 to 25 degrees below zero. Expect the
coldest reading near 25 below to be confined to mainly
northwest portions of Nebraska.

* Impacts... frostbite can occur in 30 minutes or less in these
conditions... .

Precautionary/preparedness actions...

A Wind Chill Advisory means that very cold air and strong winds
will combine to generate low wind chills. This will result in
frost bite and lead to hypothermia if precautions are not taken.
If you must venture outdoors... make sure you wear a hat and
gloves.


Power